Time;durP1;ratioP1;P1;durP2;ratioP2;P2;SDS_P1;SDS_P2;PMS_P1;PMS_P2;Temp;Humidity;BMP_temperature;BMP_pressure;BME280_temperature;BME280_humidity;BME280_pressure;Samples;Min_cycle;Max_cycle;Signal;HPM_P1;HPM_P2
2021/12/13 00:01:27;;;;;;;2.95;2.75;;;3.40;99.90;;;;;;5011868;28;20215;-76
2021/12/13 00:04:00;;;;;;;2.45;2.35;;;3.40;99.90;;;;;;5008367;28;20651;-76
2021/12/13 00:06:33;;;;;;;3.03;2.83;;;3.40;99.90;;;;;;5011776;28;20629;-80
2021/12/13 00:09:05;;;;;;;2.42;2.22;;;3.30;99.90;;;;;;5011352;28;20266;-76
2021/12/13 00:11:34;;;;;;;2.70;2.50;;;3.30;99.90;;;;;;5019698;28;20268;-76
2021/12/13 00:14:12;;;;;;;2.75;2.65;;;3.30;99.90;;;;;;5002348;28;20228;-80
2021/12/13 00:16:42;;;;;;;2.60;2.40;;;3.30;99.90;;;;;;5005498;28;20269;-73
2021/12/13 00:19:14;;;;;;;2.92;2.72;;;3.30;99.90;;;;;;5012883;28;20235;-78
2021/12/13 00:21:44;;;;;;;2.88;2.78;;;3.30;99.90;;;;;;5012035;28;20219;-76
2021/12/13 00:24:14;;;;;;;2.80;2.60;;;3.30;99.90;;;;;;5009412;28;20290;-78
2021/12/13 00:26:46;;;;;;;3.30;3.10;;;3.30;99.90;;;;;;5011632;28;20219;-74
2021/12/13 00:29:17;;;;;;;2.40;2.30;;;3.30;99.90;;;;;;5014530;28;20226;-78
2021/12/13 00:31:50;;;;;;;2.72;2.58;;;3.30;99.90;;;;;;5008512;28;20215;-77
2021/12/13 00:34:31;;;;;;;2.80;2.70;;;3.30;99.90;;;;;;5009466;28;20232;-76
2021/12/13 00:37:06;;;;;;;2.55;2.45;;;3.30;99.90;;;;;;5012369;28;20583;-80
2021/12/13 00:39:37;;;;;;;2.53;2.42;;;3.40;99.90;;;;;;5011319;28;20227;-76
2021/12/13 00:42:06;;;;;;;2.60;2.50;;;3.40;99.90;;;;;;5011918;28;20227;-75
2021/12/13 00:44:38;;;;;;;2.70;2.50;;;3.40;99.90;;;;;;5012092;28;20223;-81
2021/12/13 00:47:08;;;;;;;3.10;2.90;;;3.40;99.90;;;;;;5010385;28;20245;-82
2021/12/13 00:49:41;;;;;;;2.33;2.22;;;3.40;99.90;;;;;;5016094;28;20307;-75
2021/12/13 00:52:09;;;;;;;2.50;2.40;;;3.30;99.90;;;;;;5007457;28;20637;-75
2021/12/13 00:54:40;;;;;;;2.78;2.63;;;3.40;99.90;;;;;;5010004;28;20293;-77
2021/12/13 00:57:44;;;;;;;2.58;2.47;;;3.40;99.90;;;;;;5007058;28;20234;-76
2021/12/13 01:00:18;;;;;;;2.35;2.25;;;3.40;99.90;;;;;;5012984;28;20227;-77
2021/12/13 01:02:49;;;;;;;2.75;2.63;;;3.40;99.90;;;;;;5010790;28;20219;-74
2021/12/13 01:05:19;;;;;;;2.88;2.67;;;3.40;99.90;;;;;;5016743;28;20285;-77
2021/12/13 01:08:11;;;;;;;3.05;2.85;;;3.40;99.90;;;;;;5008419;28;20224;-75
2021/12/13 01:11:20;;;;;;;2.90;2.80;;;3.40;99.90;;;;;;5012608;28;20222;-74
2021/12/13 01:14:10;;;;;;;2.65;2.55;;;3.30;99.90;;;;;;5010036;28;20281;-76
2021/12/13 01:16:52;;;;;;;2.60;2.42;;;3.30;99.90;;;;;;5009406;28;20617;-76
2021/12/13 01:19:30;;;;;;;2.85;2.75;;;3.30;99.90;;;;;;5009509;28;20219;-77
2021/12/13 01:25:22;;;;;;;3.25;3.05;;;3.20;99.90;;;;;;4992830;28;20313;-76
2021/12/13 01:27:57;;;;;;;2.42;2.33;;;3.20;99.90;;;;;;5011465;28;20299;-75
2021/12/13 01:30:28;;;;;;;2.83;2.72;;;3.20;99.90;;;;;;5016570;28;20237;-79
2021/12/13 01:32:58;;;;;;;2.75;2.65;;;3.20;99.90;;;;;;5011933;28;20216;-80
2021/12/13 01:35:28;;;;;;;2.80;2.70;;;3.20;99.90;;;;;;5016171;28;20231;-74
2021/12/13 01:38:03;;;;;;;2.70;2.60;;;3.20;99.90;;;;;;5012446;28;20220;-74
2021/12/13 01:40:33;;;;;;;2.67;2.58;;;3.30;99.90;;;;;;5012050;28;20227;-76
2021/12/13 01:43:05;;;;;;;2.55;2.45;;;3.30;99.90;;;;;;5016067;28;20227;-74
2021/12/13 01:45:36;;;;;;;2.38;2.28;;;3.30;99.90;;;;;;5014389;28;20224;-76
2021/12/13 01:48:05;;;;;;;2.55;2.45;;;3.40;99.90;;;;;;5014061;28;20239;-79
2021/12/13 01:50:43;;;;;;;2.70;2.60;;;3.40;99.90;;;;;;5007685;28;20239;-76
2021/12/13 01:53:12;;;;;;;2.90;2.80;;;3.50;99.90;;;;;;5008321;28;20215;-80
2021/12/13 01:55:44;;;;;;;2.70;2.50;;;3.50;99.90;;;;;;5029561;22;20215;-78
2021/12/13 02:01:11;;;;;;;2.40;2.30;;;3.50;99.90;;;;;;5044391;28;20219;-77
2021/12/13 02:03:55;;;;;;;2.88;2.72;;;3.50;99.90;;;;;;5032965;28;20223;-77
2021/12/13 02:06:35;;;;;;;2.95;2.83;;;3.50;99.90;;;;;;5029362;28;20223;-77
2021/12/13 02:09:08;;;;;;;2.90;2.80;;;3.50;99.90;;;;;;5039027;28;20215;-77
2021/12/13 02:11:36;;;;;;;2.60;2.50;;;3.50;99.90;;;;;;5045448;28;20307;-78
2021/12/13 02:14:11;;;;;;;2.60;2.50;;;3.40;99.90;;;;;;5039311;28;20223;-78
2021/12/13 02:17:07;;;;;;;2.60;2.50;;;3.40;99.90;;;;;;5033907;28;20503;-78
2021/12/13 02:19:41;;;;;;;2.85;2.72;;;3.30;99.90;;;;;;5033995;28;20239;-78
2021/12/13 02:22:41;;;;;;;2.70;2.60;;;3.30;99.90;;;;;;5043078;28;20376;-77
2021/12/13 02:25:17;;;;;;;2.60;2.50;;;3.30;99.90;;;;;;5034484;28;20219;-77
2021/12/13 02:27:49;;;;;;;2.55;2.45;;;3.30;99.90;;;;;;5044453;28;20277;-78
2021/12/13 02:30:28;;;;;;;2.60;2.50;;;3.30;99.90;;;;;;5031580;28;20596;-78
2021/12/13 02:32:55;;;;;;;2.78;2.67;;;3.20;99.90;;;;;;5045797;28;20218;-78
2021/12/13 02:35:26;;;;;;;2.90;2.70;;;3.10;99.90;;;;;;5037774;28;20224;-78
2021/12/13 02:37:57;;;;;;;2.95;2.78;;;3.00;99.90;;;;;;5021450;28;20215;-78
2021/12/13 02:40:24;;;;;;;2.92;2.83;;;3.00;99.90;;;;;;5036295;28;20665;-78
2021/12/13 02:42:52;;;;;;;2.90;2.80;;;3.00;99.90;;;;;;5048685;28;20227;-78
2021/12/13 02:45:26;;;;;;;2.80;2.70;;;3.00;99.90;;;;;;5040523;28;20215;-79
2021/12/13 02:47:59;;;;;;;3.00;2.80;;;3.00;99.90;;;;;;5027275;28;20224;-79
2021/12/13 02:50:35;;;;;;;2.63;2.53;;;3.10;99.90;;;;;;5019553;28;20223;-78
2021/12/13 02:53:05;;;;;;;2.95;2.85;;;3.10;99.90;;;;;;5048064;28;20219;-78
2021/12/13 02:55:33;;;;;;;2.55;2.40;;;3.10;99.90;;;;;;5030976;28;20219;-77
2021/12/13 02:58:03;;;;;;;2.60;2.50;;;3.20;99.90;;;;;;5029888;28;20598;-79
2021/12/13 03:00:35;;;;;;;2.40;2.30;;;3.20;99.90;;;;;;5034644;28;20349;-78
2021/12/13 03:03:06;;;;;;;2.78;2.67;;;3.30;99.90;;;;;;5042112;28;20701;-78
2021/12/13 03:05:35;;;;;;;2.75;2.65;;;3.30;99.90;;;;;;5050695;28;20218;-78
2021/12/13 03:08:10;;;;;;;2.88;2.78;;;3.20;99.90;;;;;;5044490;28;20218;-78
2021/12/13 03:10:43;;;;;;;3.10;2.90;;;3.20;99.90;;;;;;5039828;28;20222;-78
2021/12/13 03:13:10;;;;;;;2.97;2.88;;;3.20;99.90;;;;;;5035469;28;20218;-77
2021/12/13 03:15:38;;;;;;;3.08;2.90;;;3.10;99.90;;;;;;5050896;28;20234;-78
2021/12/13 03:18:12;;;;;;;3.20;3.00;;;3.10;99.90;;;;;;5037578;28;25908;-78
2021/12/13 03:21:04;;;;;;;3.13;2.92;;;3.10;99.90;;;;;;5034583;28;20223;-78
2021/12/13 03:24:01;;;;;;;2.92;2.83;;;3.10;99.90;;;;;;5034830;28;20223;-78
2021/12/13 03:26:48;;;;;;;3.38;3.17;;;3.00;99.90;;;;;;5034760;28;20224;-78
2021/12/13 03:29:20;;;;;;;2.90;2.70;;;3.00;99.90;;;;;;5032176;28;20309;-78
2021/12/13 03:31:51;;;;;;;3.25;3.05;;;3.00;99.90;;;;;;5035465;28;20222;-77
2021/12/13 03:34:23;;;;;;;2.72;2.63;;;3.00;99.90;;;;;;5034915;28;20636;-78
2021/12/13 03:36:59;;;;;;;3.15;2.95;;;3.10;99.90;;;;;;5030574;28;20231;-77
2021/12/13 03:39:31;;;;;;;3.28;3.08;;;3.00;99.90;;;;;;5032853;28;20223;-78
2021/12/13 03:42:03;;;;;;;3.42;3.22;;;3.00;99.90;;;;;;5045630;28;20676;-77
2021/12/13 03:44:34;;;;;;;2.78;2.67;;;3.00;99.90;;;;;;5019067;28;20219;-77
2021/12/13 03:47:08;;;;;;;2.90;2.70;;;3.00;99.90;;;;;;5048412;28;20224;-77
2021/12/13 03:49:42;;;;;;;3.00;2.80;;;3.00;99.90;;;;;;5038362;28;20215;-77
2021/12/13 03:52:11;;;;;;;2.95;2.75;;;3.00;99.90;;;;;;5042675;28;20231;-78
2021/12/13 03:54:43;;;;;;;3.38;3.17;;;2.90;99.90;;;;;;5036271;28;20222;-77
2021/12/13 03:57:12;;;;;;;3.40;3.20;;;2.90;99.90;;;;;;5034938;28;20227;-77
2021/12/13 03:59:42;;;;;;;3.05;2.85;;;2.80;99.90;;;;;;5037378;28;20589;-78
2021/12/13 04:02:12;;;;;;;3.42;3.22;;;2.80;99.90;;;;;;5034951;28;20258;-77
2021/12/13 04:04:42;;;;;;;2.85;2.75;;;2.80;99.90;;;;;;5034951;28;20220;-78
2021/12/13 04:07:14;;;;;;;3.20;2.95;;;2.80;99.90;;;;;;5032905;28;20227;-78
2021/12/13 04:09:44;;;;;;;3.08;2.88;;;2.80;99.90;;;;;;5035264;28;20219;-78
2021/12/13 04:12:14;;;;;;;3.00;2.90;;;2.80;99.90;;;;;;5040523;28;20218;-79
2021/12/13 04:14:48;;;;;;;3.10;2.95;;;2.90;99.90;;;;;;5040453;28;20218;-78
2021/12/13 04:17:34;;;;;;;2.75;2.65;;;2.90;99.90;;;;;;5035237;28;20235;-78
2021/12/13 04:20:02;;;;;;;2.58;2.47;;;2.90;99.90;;;;;;5031688;28;20218;-78
2021/12/13 04:22:32;;;;;;;3.35;3.15;;;3.00;99.90;;;;;;5039823;28;20223;-78
2021/12/13 04:25:06;;;;;;;3.03;2.92;;;3.00;99.90;;;;;;5031524;28;20226;-78
2021/12/13 04:27:38;;;;;;;2.90;2.70;;;3.10;99.90;;;;;;5017179;28;20226;-79
2021/12/13 04:30:17;;;;;;;3.05;2.95;;;3.10;99.90;;;;;;5038230;28;20261;-77
2021/12/13 04:32:47;;;;;;;2.90;2.78;;;3.10;99.90;;;;;;5037373;28;20211;-77
2021/12/13 04:35:15;;;;;;;2.78;2.65;;;3.10;99.90;;;;;;5039899;28;20211;-78
2021/12/13 04:37:45;;;;;;;2.42;2.33;;;3.10;99.90;;;;;;5007851;28;20220;-78
2021/12/13 04:40:17;;;;;;;2.72;2.63;;;3.10;99.90;;;;;;5039843;28;20231;-78
2021/12/13 04:42:44;;;;;;;2.42;2.33;;;3.00;99.90;;;;;;5041912;28;20221;-78
2021/12/13 04:45:16;;;;;;;2.60;2.50;;;3.00;99.90;;;;;;5046783;28;20238;-79
2021/12/13 04:48:02;;;;;;;2.90;2.80;;;3.00;99.90;;;;;;5041599;28;20211;-78
2021/12/13 04:50:34;;;;;;;2.60;2.50;;;3.00;99.90;;;;;;5046053;28;20215;-78
2021/12/13 04:53:02;;;;;;;2.80;2.70;;;3.10;99.90;;;;;;5051883;28;20218;-78
2021/12/13 04:55:34;;;;;;;2.53;2.42;;;3.00;99.90;;;;;;5044749;28;20246;-79
2021/12/13 04:58:07;;;;;;;2.50;2.38;;;3.00;99.90;;;;;;5039916;28;20223;-77
2021/12/13 05:00:38;;;;;;;2.45;2.35;;;3.00;99.90;;;;;;5044083;28;20238;-78
2021/12/13 05:03:08;;;;;;;2.63;2.53;;;3.00;99.90;;;;;;5037201;28;21289;-77
2021/12/13 05:05:36;;;;;;;2.70;2.50;;;3.00;99.90;;;;;;5038821;28;20291;-78
2021/12/13 05:08:06;;;;;;;3.17;2.97;;;3.10;99.90;;;;;;5033281;28;20220;-78
2021/12/13 05:10:35;;;;;;;2.75;2.65;;;3.10;99.90;;;;;;5039791;28;20229;-79
2021/12/13 05:13:07;;;;;;;3.03;2.90;;;3.00;99.90;;;;;;5036583;28;20224;-78
2021/12/13 05:15:37;;;;;;;2.65;2.55;;;3.00;99.90;;;;;;5033778;28;20236;-78
2021/12/13 05:18:08;;;;;;;2.80;2.70;;;3.00;99.90;;;;;;5019795;28;20230;-78
2021/12/13 05:20:38;;;;;;;2.80;2.70;;;3.00;99.90;;;;;;5044389;28;22795;-77
2021/12/13 05:23:09;;;;;;;3.10;2.90;;;2.90;99.90;;;;;;5033276;28;20219;-78
2021/12/13 05:25:40;;;;;;;2.28;2.15;;;2.90;99.90;;;;;;5042768;28;20765;-78
2021/12/13 05:28:10;;;;;;;2.90;2.78;;;2.90;99.90;;;;;;5024672;28;20283;-78
2021/12/13 05:30:45;;;;;;;2.40;2.30;;;2.90;99.90;;;;;;5041551;28;20224;-78
2021/12/13 05:33:15;;;;;;;2.78;2.58;;;2.90;99.90;;;;;;5045803;28;20218;-79
2021/12/13 05:35:47;;;;;;;2.95;2.75;;;2.90;99.90;;;;;;5037577;28;20235;-78
2021/12/13 05:38:28;;;;;;;3.25;3.05;;;2.90;99.90;;;;;;5035828;28;20219;-78
2021/12/13 05:40:58;;;;;;;3.05;2.85;;;2.90;99.90;;;;;;5036675;28;20227;-78
2021/12/13 05:43:28;;;;;;;3.40;3.20;;;2.90;99.90;;;;;;5039867;28;20810;-78
2021/12/13 05:45:59;;;;;;;3.20;3.00;;;2.80;99.90;;;;;;5037740;28;20285;-77
2021/12/13 05:48:42;;;;;;;3.17;2.97;;;2.70;99.90;;;;;;5037638;28;20220;-77
2021/12/13 05:51:23;;;;;;;3.38;3.17;;;2.70;99.90;;;;;;5045561;28;20219;-78
2021/12/13 05:53:56;;;;;;;3.42;3.20;;;2.70;99.90;;;;;;5038797;28;20227;-79
2021/12/13 05:56:28;;;;;;;3.15;2.95;;;2.60;99.90;;;;;;5029756;28;20705;-78
2021/12/13 05:59:08;;;;;;;3.67;3.47;;;2.60;99.90;;;;;;5038371;28;20604;-79
2021/12/13 06:01:44;;;;;;;3.72;3.47;;;2.60;99.90;;;;;;5040484;28;20252;-79
2021/12/13 06:04:14;;;;;;;3.42;3.22;;;2.60;99.90;;;;;;5043913;28;20222;-79
2021/12/13 06:06:46;;;;;;;3.47;3.28;;;2.60;99.90;;;;;;5025426;28;20231;-78
2021/12/13 06:09:42;;;;;;;3.00;2.83;;;2.70;99.90;;;;;;5039666;28;20241;-79
2021/12/13 06:12:13;;;;;;;3.97;3.67;;;2.70;99.90;;;;;;5038850;28;20253;-79
2021/12/13 06:14:40;;;;;;;3.20;3.00;;;2.70;99.90;;;;;;5012214;28;20234;-79
2021/12/13 06:17:15;;;;;;;3.38;3.17;;;2.70;99.90;;;;;;5041720;28;20238;-77
2021/12/13 06:19:48;;;;;;;2.83;2.63;;;2.80;99.90;;;;;;5036963;28;20218;-78
2021/12/13 06:22:19;;;;;;;2.95;2.78;;;2.80;99.90;;;;;;5027007;28;20227;-79
2021/12/13 06:24:54;;;;;;;2.83;2.63;;;2.80;99.90;;;;;;5033880;28;20507;-79
2021/12/13 06:27:25;;;;;;;3.25;3.05;;;2.90;99.90;;;;;;5031188;28;20226;-79
2021/12/13 06:30:10;;;;;;;2.88;2.65;;;2.90;99.90;;;;;;5025578;28;20219;-77
2021/12/13 06:32:42;;;;;;;3.53;3.33;;;2.90;99.90;;;;;;5037110;28;20221;-79
2021/12/13 06:35:33;;;;;;;3.30;3.10;;;2.90;99.90;;;;;;5034077;28;20219;-79
2021/12/13 06:38:01;;;;;;;3.47;3.28;;;2.90;99.90;;;;;;5032325;28;20219;-79
2021/12/13 06:40:30;;;;;;;3.63;3.42;;;2.80;99.90;;;;;;5030423;28;21301;-79
2021/12/13 06:43:01;;;;;;;3.10;2.90;;;2.80;99.90;;;;;;5023601;28;20230;-78
2021/12/13 06:45:32;;;;;;;3.05;2.85;;;2.90;99.90;;;;;;5032636;28;20385;-79
2021/12/13 06:48:01;;;;;;;2.95;2.80;;;2.90;99.90;;;;;;5027823;28;20414;-77
2021/12/13 06:50:31;;;;;;;2.97;2.88;;;2.90;99.90;;;;;;5034078;28;20289;-78
2021/12/13 06:53:13;;;;;;;2.85;2.75;;;2.90;99.90;;;;;;5014236;28;20388;-77
2021/12/13 06:55:40;;;;;;;2.80;2.67;;;2.90;99.90;;;;;;5032942;28;20238;-78
2021/12/13 06:58:17;;;;;;;3.28;3.08;;;2.90;99.90;;;;;;5031624;28;20701;-78
2021/12/13 07:00:45;;;;;;;2.90;2.80;;;2.90;99.90;;;;;;5033662;28;20306;-79
2021/12/13 07:03:19;;;;;;;2.88;2.78;;;2.90;99.90;;;;;;5041834;28;20644;-78
2021/12/13 07:05:49;;;;;;;3.00;2.88;;;2.90;99.90;;;;;;5034292;28;20617;-78
2021/12/13 07:08:22;;;;;;;3.30;3.10;;;3.00;99.90;;;;;;5027568;28;20289;-78
2021/12/13 07:10:59;;;;;;;3.15;2.95;;;3.00;99.90;;;;;;5033591;28;20401;-78
2021/12/13 07:13:31;;;;;;;3.35;3.17;;;3.00;99.90;;;;;;5030386;28;20218;-75
2021/12/13 07:16:02;;;;;;;3.10;3.00;;;3.10;99.90;;;;;;5029202;28;20227;-77
2021/12/13 07:18:38;;;;;;;3.25;3.05;;;3.10;99.90;;;;;;5024896;28;20238;-78
2021/12/13 07:21:08;;;;;;;3.60;3.40;;;3.10;99.90;;;;;;5032834;28;20222;-78
2021/12/13 07:24:00;;;;;;;3.60;3.40;;;3.10;99.90;;;;;;5025387;28;20255;-78
2021/12/13 07:26:34;;;;;;;3.17;2.97;;;3.10;99.90;;;;;;5020682;28;20269;-77
2021/12/13 07:29:08;;;;;;;3.13;2.95;;;3.10;99.90;;;;;;5021120;28;20239;-78
2021/12/13 07:31:37;;;;;;;3.50;3.30;;;3.20;99.90;;;;;;5018167;28;20288;-77
2021/12/13 07:34:10;;;;;;;3.30;3.10;;;3.20;99.90;;;;;;5025381;28;20639;-78
2021/12/13 07:36:37;;;;;;;3.47;3.28;;;3.10;99.90;;;;;;5017313;28;20288;-77
2021/12/13 07:39:11;;;;;;;3.30;3.20;;;3.10;99.90;;;;;;5025644;28;20215;-77
2021/12/13 07:41:48;;;;;;;3.30;3.10;;;3.10;99.90;;;;;;5019084;28;20314;-78
2021/12/13 07:44:34;;;;;;;3.50;3.30;;;3.20;99.90;;;;;;5023314;28;20230;-78
2021/12/13 07:47:03;;;;;;;4.32;3.53;;;3.20;99.90;;;;;;5025185;28;20227;-79
2021/12/13 07:49:33;;;;;;;3.50;3.30;;;3.20;99.90;;;;;;5026883;28;20226;-78
2021/12/13 07:52:02;;;;;;;3.75;3.55;;;3.20;99.90;;;;;;5024787;28;20227;-77
2021/12/13 07:54:38;;;;;;;3.70;3.50;;;3.10;99.90;;;;;;5014465;28;20300;-77
2021/12/13 07:57:15;;;;;;;3.90;3.60;;;3.10;99.90;;;;;;5010108;22;20273;-73
2021/12/13 07:59:44;;;;;;;4.40;4.10;;;3.10;99.90;;;;;;4993758;28;20231;-77
2021/12/13 08:02:21;;;;;;;4.20;3.90;;;3.10;99.90;;;;;;4963357;28;20269;-73
2021/12/13 08:04:51;;;;;;;3.85;3.65;;;3.10;99.90;;;;;;4994029;28;20717;-74
2021/12/13 08:07:21;;;;;;;4.00;3.72;;;3.10;99.90;;;;;;4995997;28;20232;-72
2021/12/13 08:09:53;;;;;;;4.97;4.47;;;3.10;99.90;;;;;;4956014;28;20232;-73
2021/12/13 08:12:23;;;;;;;3.85;3.65;;;3.20;99.90;;;;;;4982786;28;20249;-75
2021/12/13 08:14:55;;;;;;;3.70;3.50;;;3.40;99.90;;;;;;4978543;28;20239;-73
2021/12/13 08:17:26;;;;;;;3.60;3.38;;;4.40;99.90;;;;;;4981009;28;20228;-74
2021/12/13 08:19:56;;;;;;;3.70;3.30;;;5.50;99.90;;;;;;4978612;28;20298;-73
2021/12/13 08:22:28;;;;;;;2.92;2.72;;;6.50;99.90;;;;;;4974775;28;20236;-70
2021/12/13 08:24:57;;;;;;;3.28;3.08;;;7.50;99.90;;;;;;4990095;28;20834;-74
2021/12/13 08:27:28;;;;;;;3.38;3.17;;;8.40;99.90;;;;;;4980063;28;20237;-73
2021/12/13 08:30:10;;;;;;;3.88;3.50;;;9.10;99.90;;;;;;4992144;28;20600;-72
2021/12/13 08:32:38;;;;;;;2.97;2.72;;;9.80;99.90;;;;;;4979683;28;20233;-73
2021/12/13 08:35:08;;;;;;;2.97;2.75;;;10.20;99.90;;;;;;4980702;28;20224;-72
2021/12/13 08:37:38;;;;;;;3.20;3.00;;;10.60;99.90;;;;;;4984495;28;20240;-70
2021/12/13 08:40:11;;;;;;;2.53;2.33;;;10.90;99.90;;;;;;4981780;28;20224;-73
2021/12/13 08:42:40;;;;;;;2.67;2.47;;;11.20;99.90;;;;;;4979702;28;20290;-72
2021/12/13 08:45:16;;;;;;;3.58;3.28;;;11.20;99.90;;;;;;4978300;28;20233;-71
2021/12/13 08:47:48;;;;;;;3.67;2.70;;;11.30;99.90;;;;;;4979107;28;20590;-75
2021/12/13 08:50:19;;;;;;;2.90;2.70;;;11.70;99.90;;;;;;4980380;28;20602;-72
2021/12/13 08:52:55;;;;;;;3.22;2.95;;;12.40;99.90;;;;;;4981249;28;20227;-72
2021/12/13 08:55:28;;;;;;;3.70;3.40;;;12.80;99.90;;;;;;4977889;28;20288;-73
2021/12/13 08:57:59;;;;;;;2.80;2.60;;;12.90;99.90;;;;;;4982152;28;20619;-71
2021/12/13 09:00:49;;;;;;;3.05;2.85;;;13.00;99.90;;;;;;4982416;28;20263;-73
2021/12/13 09:03:40;;;;;;;3.47;3.25;;;13.30;99.90;;;;;;4978692;28;20703;-74
2021/12/13 09:06:30;;;;;;;3.30;3.10;;;13.30;99.90;;;;;;4973563;28;20557;-71
2021/12/13 09:09:02;;;;;;;3.53;3.22;;;13.70;99.90;;;;;;4983431;28;20282;-77
2021/12/13 09:11:32;;;;;;;3.00;2.80;;;14.80;99.90;;;;;;4983207;28;20225;-73
2021/12/13 09:14:05;;;;;;;2.58;2.33;;;16.00;99.90;;;;;;4979943;28;20224;-75
2021/12/13 09:16:46;;;;;;;2.92;2.72;;;16.80;99.90;;;;;;4983945;28;20762;-71
2021/12/13 09:19:18;;;;;;;3.58;2.88;;;17.80;97.10;;;;;;4979093;28;20272;-74
2021/12/13 09:21:49;;;;;;;2.90;2.70;;;19.00;94.00;;;;;;4983936;28;20236;-72
2021/12/13 09:24:28;;;;;;;3.42;3.13;;;19.60;92.30;;;;;;4970621;28;20779;-71
2021/12/13 09:27:05;;;;;;;2.92;2.63;;;20.40;88.30;;;;;;4982287;28;20223;-71
2021/12/13 09:29:32;;;;;;;3.13;2.80;;;20.60;84.10;;;;;;4982839;28;20227;-75
2021/12/13 09:32:01;;;;;;;3.15;2.95;;;20.70;84.50;;;;;;4985207;28;20219;-71
2021/12/13 09:34:28;;;;;;;3.25;2.95;;;20.90;82.00;;;;;;4983691;28;20295;-72
2021/12/13 09:36:58;;;;;;;2.92;2.72;;;21.40;81.10;;;;;;4984171;28;20289;-69
2021/12/13 09:39:28;;;;;;;3.95;3.20;;;22.10;76.80;;;;;;4988256;28;20617;-74
2021/12/13 09:41:59;;;;;;;3.58;3.28;;;21.90;74.60;;;;;;4988414;28;20228;-73
2021/12/13 09:44:32;;;;;;;3.78;3.35;;;22.00;75.90;;;;;;4994883;28;20602;-78
2021/12/13 09:47:05;;;;;;;4.15;3.75;;;22.00;74.20;;;;;;4983151;28;20216;-74
2021/12/13 09:49:38;;;;;;;5.10;4.22;;;22.30;73.90;;;;;;4959683;28;20226;-72
2021/12/13 09:52:09;;;;;;;6.43;5.00;;;22.20;74.70;;;;;;4986989;28;20220;-73
2021/12/13 09:54:40;;;;;;;5.47;4.65;;;21.90;75.30;;;;;;4981586;28;20301;-75
2021/12/13 09:57:10;;;;;;;4.30;3.80;;;21.30;76.10;;;;;;4982686;28;20232;-75
2021/12/13 09:59:41;;;;;;;3.40;3.10;;;19.50;78.50;;;;;;4986050;28;20232;-72
2021/12/13 10:02:15;;;;;;;3.45;3.15;;;17.60;84.60;;;;;;4978351;28;20224;-70
2021/12/13 10:04:45;;;;;;;3.78;3.38;;;16.20;88.90;;;;;;4983057;28;20224;-72
2021/12/13 10:07:15;;;;;;;3.78;3.33;;;15.30;91.30;;;;;;4955487;28;20248;-74
2021/12/13 10:09:45;;;;;;;4.40;3.63;;;15.00;92.60;;;;;;4969907;28;20224;-69
2021/12/13 10:12:16;;;;;;;3.45;3.15;;;14.90;93.20;;;;;;4996020;28;20212;-73
2021/12/13 10:14:47;;;;;;;3.67;3.35;;;15.00;93.60;;;;;;4982003;28;20571;-74
2021/12/13 10:17:17;;;;;;;3.60;3.30;;;15.00;94.00;;;;;;4977315;28;20216;-78
2021/12/13 10:19:48;;;;;;;4.00;3.60;;;15.10;94.10;;;;;;4985118;28;20319;-71
2021/12/13 10:22:18;;;;;;;4.18;3.53;;;15.00;94.40;;;;;;4989675;28;20224;-75
2021/12/13 10:24:50;;;;;;;4.47;3.45;;;15.00;94.70;;;;;;4985331;28;20280;-74
2021/12/13 10:27:19;;;;;;;3.97;3.58;;;15.00;94.50;;;;;;4981643;28;20583;-74
2021/12/13 10:29:53;;;;;;;3.55;3.15;;;14.50;94.30;;;;;;4979734;28;20220;-72
2021/12/13 10:32:25;;;;;;;3.97;3.13;;;14.40;95.30;;;;;;4990540;28;20233;-75
2021/12/13 10:34:55;;;;;;;4.43;4.03;;;14.40;95.60;;;;;;4980228;28;20225;-76
2021/12/13 10:37:27;;;;;;;4.60;4.20;;;14.60;96.20;;;;;;4988720;28;20522;-74
2021/12/13 10:39:58;;;;;;;4.03;3.72;;;14.50;95.90;;;;;;4982582;28;20615;-70
2021/12/13 10:42:30;;;;;;;4.38;3.97;;;14.40;96.20;;;;;;4963199;28;20298;-74
2021/12/13 10:44:59;;;;;;;5.68;4.28;;;14.20;96.10;;;;;;4978730;28;20709;-74
2021/12/13 10:47:31;;;;;;;4.75;3.95;;;14.00;96.50;;;;;;4983599;28;20239;-76
2021/12/13 10:50:02;;;;;;;3.92;3.63;;;14.00;96.70;;;;;;4982350;28;20227;-72
2021/12/13 10:52:32;;;;;;;3.97;3.58;;;13.90;97.20;;;;;;4982917;28;20228;-73
2021/12/13 10:55:06;;;;;;;4.40;4.00;;;14.10;97.20;;;;;;4963361;28;20217;-75
2021/12/13 10:57:37;;;;;;;4.93;4.03;;;14.30;97.40;;;;;;4987008;28;20226;-74
2021/12/13 11:00:08;;;;;;;4.70;4.10;;;14.50;96.90;;;;;;4983866;28;20221;-76
2021/12/13 11:02:37;;;;;;;4.65;4.15;;;14.60;96.80;;;;;;4976894;28;20335;-78
2021/12/13 11:05:10;;;;;;;5.57;4.13;;;14.60;96.40;;;;;;4985138;28;22432;-78
2021/12/13 11:07:38;;;;;;;5.78;3.97;;;14.30;97.00;;;;;;4979008;28;20310;-77
2021/12/13 11:10:08;;;;;;;5.05;4.05;;;14.20;96.90;;;;;;4969653;28;20737;-73
2021/12/13 11:12:39;;;;;;;5.53;3.17;;;14.10;97.10;;;;;;4989326;28;20480;-76
2021/12/13 11:15:09;;;;;;;5.90;3.83;;;13.90;97.40;;;;;;4973824;28;20272;-75
2021/12/13 11:17:39;;;;;;;5.10;4.13;;;14.10;97.10;;;;;;4980004;28;20244;-73
2021/12/13 11:20:11;;;;;;;5.75;4.13;;;14.20;97.10;;;;;;4975045;28;20229;-76
2021/12/13 11:22:39;;;;;;;6.57;4.72;;;14.30;97.10;;;;;;4976221;28;20248;-74
2021/12/13 11:25:10;;;;;;;4.43;3.97;;;14.30;97.40;;;;;;4973582;28;20232;-75
2021/12/13 11:27:38;;;;;;;4.97;3.83;;;14.50;97.90;;;;;;4973228;28;20240;-73
2021/12/13 11:30:09;;;;;;;6.85;4.75;;;14.50;97.40;;;;;;4980705;28;20221;-73
2021/12/13 11:33:28;;;;;;;4.57;4.18;;;14.40;96.90;;;;;;4977240;28;20240;-75
2021/12/13 11:36:28;;;;;;;4.63;3.90;;;14.00;97.40;;;;;;4975269;28;20232;-71
2021/12/13 11:39:44;;;;;;;4.88;4.22;;;13.80;97.50;;;;;;4977412;28;20251;-77
2021/12/13 11:42:44;;;;;;;3.92;3.55;;;14.00;98.60;;;;;;4903246;29;20705;-74
2021/12/13 11:45:48;;;;;;;5.65;3.92;;;14.30;97.50;;;;;;4880973;28;20768;-74
2021/12/13 11:49:11;;;;;;;4.32;3.35;;;14.20;97.20;;;;;;4977755;28;20223;-75
2021/12/13 11:52:13;;;;;;;3.95;3.55;;;14.30;97.00;;;;;;4910930;29;20234;-75
2021/12/13 11:55:06;;;;;;;3.92;3.53;;;14.40;97.40;;;;;;4916787;29;20237;-77
2021/12/13 11:58:16;;;;;;;4.32;3.75;;;14.40;97.90;;;;;;4981038;28;20707;-75
2021/12/13 12:01:19;;;;;;;5.18;3.92;;;14.20;97.50;;;;;;4988278;28;20772;-76
2021/12/13 12:04:50;;;;;;;5.00;3.78;;;13.90;98.00;;;;;;4986742;28;20604;-75
2021/12/13 12:07:47;;;;;;;4.90;3.80;;;13.60;98.50;;;;;;4984274;28;20224;-71
2021/12/13 12:10:43;;;;;;;6.90;3.80;;;13.40;98.60;;;;;;4987172;28;20220;-73
2021/12/13 12:13:27;;;;;;;4.60;4.00;;;13.40;98.90;;;;;;4982468;28;20596;-74
2021/12/13 12:15:58;;;;;;;5.00;3.38;;;13.40;98.70;;;;;;4980463;28;20702;-73
2021/12/13 12:18:26;;;;;;;4.38;3.97;;;13.30;99.20;;;;;;4988058;28;20228;-75
2021/12/13 12:21:31;;;;;;;5.13;3.60;;;13.50;99.80;;;;;;4984516;28;20773;-73
2021/12/13 12:24:03;;;;;;;3.95;3.40;;;13.70;99.00;;;;;;4977615;28;20224;-75
2021/12/13 12:26:31;;;;;;;4.03;3.47;;;13.70;99.00;;;;;;4981239;28;20279;-77
2021/12/13 12:29:02;;;;;;;3.88;3.47;;;13.80;99.00;;;;;;4981947;28;20352;-74
2021/12/13 12:31:35;;;;;;;4.00;3.53;;;13.80;99.00;;;;;;4985007;28;20225;-76
2021/12/13 12:34:05;;;;;;;3.50;3.20;;;13.60;98.90;;;;;;4980586;28;20350;-73
2021/12/13 12:36:43;;;;;;;4.63;3.25;;;13.40;99.50;;;;;;4979579;28;20428;-76
2021/12/13 12:39:58;;;;;;;4.70;3.30;;;13.20;99.80;;;;;;4985498;28;20703;-73
2021/12/13 12:42:30;;;;;;;6.03;3.75;;;13.10;99.90;;;;;;4984949;28;20229;-72
2021/12/13 12:45:24;;;;;;;4.45;3.90;;;13.10;99.90;;;;;;4970658;28;20315;-74
2021/12/13 12:48:18;;;;;;;6.00;4.60;;;13.30;99.90;;;;;;4992093;28;20262;-75
2021/12/13 12:50:57;;;;;;;5.13;4.07;;;13.30;99.90;;;;;;4986000;28;20223;-74
2021/12/13 12:53:38;;;;;;;3.67;3.38;;;13.20;99.90;;;;;;4990419;28;20215;-73
2021/12/13 12:56:10;;;;;;;3.85;3.47;;;13.20;99.90;;;;;;4985731;28;20251;-76
2021/12/13 12:58:48;;;;;;;5.90;3.70;;;13.30;99.90;;;;;;4988852;28;20247;-74
2021/12/13 13:01:20;;;;;;;3.13;2.88;;;13.30;99.90;;;;;;4966170;28;20219;-74
2021/12/13 13:03:47;;;;;;;3.80;3.50;;;13.00;99.90;;;;;;4982953;28;20225;-74
2021/12/13 13:06:19;;;;;;;3.97;3.50;;;12.80;99.90;;;;;;4983874;28;20279;-74
2021/12/13 13:08:50;;;;;;;3.72;3.42;;;12.80;99.90;;;;;;4993945;28;20291;-72
2021/12/13 13:11:27;;;;;;;4.30;3.25;;;12.90;99.90;;;;;;4978947;28;20232;-74
2021/12/13 13:13:59;;;;;;;3.53;3.20;;;13.00;99.90;;;;;;4964371;28;20310;-75
2021/12/13 13:16:35;;;;;;;3.63;3.30;;;13.10;99.90;;;;;;4982818;28;20229;-73
2021/12/13 13:19:04;;;;;;;4.80;3.65;;;13.00;99.90;;;;;;4981187;28;20238;-75
2021/12/13 13:21:33;;;;;;;3.63;3.33;;;12.80;99.90;;;;;;4981994;28;20236;-73
2021/12/13 13:24:02;;;;;;;5.80;3.65;;;12.70;99.90;;;;;;4981197;28;20229;-75
2021/12/13 13:26:31;;;;;;;5.90;3.58;;;12.70;99.90;;;;;;4943645;28;20442;-73
2021/12/13 13:29:04;;;;;;;6.32;3.90;;;12.60;99.90;;;;;;4990888;28;20236;-71
2021/12/13 13:31:37;;;;;;;3.83;3.42;;;12.50;99.90;;;;;;4961983;28;20818;-74
2021/12/13 13:34:06;;;;;;;3.50;3.20;;;12.40;99.90;;;;;;4995276;28;20216;-75
2021/12/13 13:36:38;;;;;;;4.35;3.95;;;12.30;99.90;;;;;;4983521;28;20224;-72
2021/12/13 13:39:23;;;;;;;5.07;4.55;;;12.40;99.90;;;;;;4987912;28;20715;-74